KOXD/OXD METAR and TAF weather

Enter ICAO airport designator
Station Type Date Time Source
KOXD METAR 2024/07/15 20:59 UTC NOAA

KOXD 152059Z AUTO 23004KT 10SM RA SCT035 SCT050 BKN100 31/24 A2990 RMK AO2 LTG DSNT NW THRU E


Station Type Date Time Source
KOXD Decoded METAR 2024/07/15 20:59 UTC NOAA

Station name not available
Jul 15, 2024 - 04:59 PM EDT / 2024.07.15 2059 UTC
Wind: from the SW (230 degrees) at 5 MPH (4 KT):0
Visibility: 10 mile(s):0
Sky conditions: mostly cloudy
Weather: rain; Lightning observed
Temperature: 87 F (31 C)
Heat index: 95.7 F (35.4 C):1
Dew Point: 75 F (24 C)
Relative Humidity: 66%
Pressure (altimeter): 29.9 in. Hg (1012 hPa)
ob: KOXD 152059Z AUTO 23004KT 10SM RA SCT035 SCT050 BKN100 31/24 A2990 RMK AO2 LTG DSNT NW THRU E
cycle: 21

Station Type Date Time Source
KOXD TAF UTC NOAA

Error!

Example: see airport list